Port Wing, Wisconsin
Current Conditions -  °F | °C
As of 10:14 AM on Wednesday 28 Jan 2015 (Local Time) from KTWM Reporting Station
Overcast Overcast  
Wind Chill: 21°   Ceiling: 900
Heat Index: 28°   Visibility: 7mi
Dew Point: 23°   Wind: 7mph
Humidity: 80%   Direction: 140°SE
Pressure: 29.96"   Gusts: NA
Location:  46.77°N, 91.39°W
Report Text: KTWM 281614Z AUTO 14006KT 7SM OVC009 M02/M05 A2996 RMK AO2
Loading
Personal Weather Stations






























Interactive Weather Map New forecast layout! Learn more

10-Day Weather Forecast

Advertisements
Track Severe Weather on mobile